createdAt,value
2018-03-29T00:00:43.645Z,996.42
2018-03-29T00:01:43.654Z,996.45
2018-03-29T00:02:43.668Z,996.45
2018-03-29T00:03:43.687Z,996.43
2018-03-29T00:04:43.703Z,996.47
2018-03-29T00:05:43.721Z,996.46
2018-03-29T00:06:43.734Z,996.49
2018-03-29T00:07:43.753Z,996.51
2018-03-29T00:08:43.768Z,996.46
2018-03-29T00:09:43.783Z,996.51
2018-03-29T00:10:43.807Z,996.48
2018-03-29T00:11:43.817Z,996.49
2018-03-29T00:12:43.833Z,996.48
2018-03-29T00:13:43.856Z,996.47
2018-03-29T00:14:43.871Z,996.47
2018-03-29T00:15:43.884Z,996.52
2018-03-29T00:16:43.898Z,996.48
2018-03-29T00:17:43.955Z,996.48
2018-03-29T00:18:43.931Z,996.47
2018-03-29T00:19:43.951Z,996.49
2018-03-29T00:20:43.970Z,996.46
2018-03-29T00:21:43.986Z,996.47
2018-03-29T00:22:44.007Z,996.45
2018-03-29T00:23:44.011Z,996.47
2018-03-29T00:24:44.036Z,996.47
2018-03-29T00:25:44.046Z,996.46
2018-03-29T00:26:44.065Z,996.49
2018-03-29T00:27:44.082Z,996.47
2018-03-29T00:28:44.146Z,996.46
2018-03-29T00:29:44.116Z,996.47
2018-03-29T00:30:44.131Z,996.49
2018-03-29T00:31:44.156Z,996.49
2018-03-29T00:32:44.168Z,996.53
2018-03-29T00:33:44.184Z,996.55
2018-03-29T00:34:44.198Z,996.56
2018-03-29T00:35:44.220Z,996.58
2018-03-29T00:36:44.232Z,996.60
2018-03-29T00:37:44.246Z,996.58
2018-03-29T00:38:44.265Z,996.59
2018-03-29T00:39:44.280Z,996.58
2018-03-29T00:40:44.302Z,996.61
2018-03-29T00:41:44.317Z,996.63
2018-03-29T00:42:44.335Z,996.64
2018-03-29T00:43:44.351Z,996.61
2018-03-29T00:44:44.376Z,996.67
2018-03-29T00:45:44.381Z,996.65
2018-03-29T00:46:44.400Z,996.69
2018-03-29T00:47:44.418Z,996.62
2018-03-29T00:48:44.430Z,996.66
2018-03-29T00:49:44.450Z,996.68
2018-03-29T00:50:44.464Z,996.69
2018-03-29T00:51:44.485Z,996.67
2018-03-29T00:52:44.504Z,996.67
2018-03-29T00:53:44.526Z,996.66
2018-03-29T00:54:44.541Z,996.66
2018-03-29T00:55:44.553Z,996.66
2018-03-29T00:56:44.570Z,996.65
2018-03-29T00:57:44.585Z,996.63
2018-03-29T00:58:44.600Z,996.69
2018-03-29T00:59:44.624Z,996.66
2018-03-29T01:00:44.638Z,996.65
2018-03-29T01:01:44.649Z,996.67
2018-03-29T01:02:44.664Z,996.68
2018-03-29T01:03:44.685Z,996.69
2018-03-29T01:04:44.704Z,996.68
2018-03-29T01:05:44.718Z,996.69
2018-03-29T01:06:44.739Z,996.66
2018-03-29T01:07:44.749Z,996.69
2018-03-29T01:08:44.770Z,996.66
2018-03-29T01:09:44.784Z,996.66
2018-03-29T01:10:44.800Z,996.69
2018-03-29T01:11:44.822Z,996.67
2018-03-29T01:12:44.837Z,996.69
2018-03-29T01:13:44.849Z,996.68
2018-03-29T01:14:44.868Z,996.70
2018-03-29T01:15:44.889Z,996.67
2018-03-29T01:16:44.904Z,996.69
2018-03-29T01:17:44.923Z,996.72
2018-03-29T01:18:44.941Z,996.70
2018-03-29T01:19:44.953Z,996.70
2018-03-29T01:20:44.969Z,996.71
2018-03-29T01:21:44.983Z,996.71
2018-03-29T01:22:45.002Z,996.71
2018-03-29T01:23:45.024Z,996.72
2018-03-29T01:24:45.039Z,996.72
2018-03-29T01:25:45.058Z,996.72
2018-03-29T01:26:45.075Z,996.76
2018-03-29T01:27:45.088Z,996.75
2018-03-29T01:28:45.103Z,996.76
2018-03-29T01:29:45.121Z,996.78
2018-03-29T01:30:45.138Z,996.82
2018-03-29T01:31:45.157Z,996.82
2018-03-29T01:32:45.173Z,996.82
2018-03-29T01:33:45.189Z,996.83
2018-03-29T01:34:45.208Z,996.84
2018-03-29T01:35:45.232Z,996.83
2018-03-29T01:36:45.250Z,996.84
2018-03-29T01:37:45.258Z,996.85
2018-03-29T01:38:45.274Z,996.88
2018-03-29T01:39:45.295Z,996.86
2018-03-29T01:40:45.309Z,996.88
2018-03-29T01:41:45.325Z,996.87
2018-03-29T01:42:45.341Z,996.91
2018-03-29T01:43:45.360Z,996.92
2018-03-29T01:44:45.376Z,996.91
2018-03-29T01:45:45.397Z,996.91
2018-03-29T01:46:45.411Z,996.93
2018-03-29T01:47:45.424Z,996.90
2018-03-29T01:48:45.442Z,996.93
2018-03-29T01:49:45.462Z,996.95
2018-03-29T01:50:45.472Z,996.96
2018-03-29T01:51:45.489Z,996.92
2018-03-29T01:52:45.511Z,996.98
2018-03-29T01:53:45.532Z,996.99
2018-03-29T01:54:45.537Z,997.01
2018-03-29T01:55:45.558Z,996.99
2018-03-29T01:56:45.586Z,997.00
2018-03-29T01:57:45.586Z,997.02
2018-03-29T01:58:45.607Z,997.03
2018-03-29T01:59:45.626Z,996.98
2018-03-29T02:00:45.636Z,997.02
2018-03-29T02:01:45.651Z,997.05
2018-03-29T02:02:45.672Z,997.06
2018-03-29T02:03:45.686Z,997.03
2018-03-29T02:04:45.761Z,997.06
2018-03-29T02:05:45.723Z,997.04
2018-03-29T02:06:45.738Z,997.10
2018-03-29T02:07:45.793Z,997.04
2018-03-29T02:08:45.773Z,997.10
2018-03-29T02:09:45.790Z,997.08
2018-03-29T02:10:45.801Z,997.08
2018-03-29T02:11:45.821Z,997.11
2018-03-29T02:12:45.840Z,997.10
2018-03-29T02:13:45.853Z,997.15
2018-03-29T02:14:45.865Z,997.13
2018-03-29T02:15:45.885Z,997.14
2018-03-29T02:16:45.909Z,997.16
2018-03-29T02:17:45.916Z,997.18
2018-03-29T02:18:45.935Z,997.17
2018-03-29T02:19:45.950Z,997.21
2018-03-29T02:20:45.966Z,997.19
2018-03-29T02:21:45.980Z,997.22
2018-03-29T02:22:45.999Z,997.23
2018-03-29T02:23:46.015Z,997.26
2018-03-29T02:24:46.029Z,997.26
2018-03-29T02:25:46.069Z,997.27
2018-03-29T02:26:46.066Z,997.28
2018-03-29T02:27:46.080Z,997.27
2018-03-29T02:28:46.101Z,997.28
2018-03-29T02:29:46.110Z,997.26
2018-03-29T02:30:46.125Z,997.29
2018-03-29T02:31:46.144Z,997.29
2018-03-29T02:32:46.165Z,997.34
2018-03-29T02:33:46.175Z,997.38
2018-03-29T02:34:46.196Z,997.35
2018-03-29T02:35:46.211Z,997.37
2018-03-29T02:36:46.224Z,997.37
2018-03-29T02:37:46.248Z,997.40
2018-03-29T02:38:46.256Z,997.42
2018-03-29T02:39:46.277Z,997.38
2018-03-29T02:40:46.301Z,997.40
2018-03-29T02:41:46.316Z,997.44
2018-03-29T02:42:46.325Z,997.45
2018-03-29T02:43:46.336Z,997.46
2018-03-29T02:44:46.367Z,997.50
2018-03-29T02:45:46.375Z,997.52
2018-03-29T02:46:46.391Z,997.51
2018-03-29T02:47:46.403Z,997.55
2018-03-29T02:48:46.434Z,997.50
2018-03-29T02:49:46.435Z,997.56
2018-03-29T02:50:46.454Z,997.55
2018-03-29T02:51:46.468Z,997.57
2018-03-29T02:52:46.488Z,997.62
2018-03-29T02:53:46.499Z,997.62
2018-03-29T02:54:46.518Z,997.62
2018-03-29T02:55:46.542Z,997.61
2018-03-29T02:56:46.549Z,997.59
2018-03-29T02:57:46.572Z,997.61
2018-03-29T02:58:46.583Z,997.65
2018-03-29T02:59:46.598Z,997.65
2018-03-29T03:00:46.614Z,997.68
2018-03-29T03:01:46.633Z,997.70
2018-03-29T03:02:46.647Z,997.69
2018-03-29T03:03:46.664Z,997.71
2018-03-29T03:04:46.684Z,997.71
2018-03-29T03:05:46.698Z,997.70
2018-03-29T03:06:46.717Z,997.74
2018-03-29T03:07:46.733Z,997.76
2018-03-29T03:08:46.747Z,997.73
2018-03-29T03:09:46.763Z,997.77
2018-03-29T03:10:46.777Z,997.74
2018-03-29T03:11:46.792Z,997.76
2018-03-29T03:12:46.815Z,997.75
2018-03-29T03:13:46.829Z,997.78
2018-03-29T03:14:46.843Z,997.80
2018-03-29T03:15:46.861Z,997.84
2018-03-29T03:16:46.879Z,997.80
2018-03-29T03:17:46.907Z,997.82
2018-03-29T03:18:46.907Z,997.82
2018-03-29T03:19:46.922Z,997.85
2018-03-29T03:20:46.951Z,997.82
2018-03-29T03:21:46.956Z,997.83
2018-03-29T03:22:46.972Z,997.80
2018-03-29T03:23:46.994Z,997.84
2018-03-29T03:24:47.016Z,997.85
2018-03-29T03:25:47.020Z,997.89
2018-03-29T03:26:47.036Z,997.93
2018-03-29T03:27:47.051Z,997.92
2018-03-29T03:28:47.074Z,997.93
2018-03-29T03:29:47.091Z,997.93
2018-03-29T03:30:47.102Z,997.92
2018-03-29T03:31:47.121Z,998.00
2018-03-29T03:32:47.136Z,998.00
2018-03-29T03:33:47.155Z,998.00
2018-03-29T03:34:47.166Z,997.97
2018-03-29T03:35:47.183Z,997.98
2018-03-29T03:36:47.206Z,998.02
2018-03-29T03:37:47.212Z,998.02
2018-03-29T03:38:47.236Z,998.02
2018-03-29T03:39:47.245Z,998.02
2018-03-29T03:40:47.271Z,998.06
2018-03-29T03:41:47.281Z,998.07
2018-03-29T03:42:47.298Z,998.07
2018-03-29T03:43:47.312Z,998.09
2018-03-29T03:44:47.330Z,998.13
2018-03-29T03:45:47.340Z,998.11
2018-03-29T03:46:47.368Z,998.14
2018-03-29T03:47:47.376Z,998.11
2018-03-29T03:48:47.389Z,998.16
2018-03-29T03:49:47.405Z,998.19
2018-03-29T03:50:47.425Z,998.16
2018-03-29T03:51:47.439Z,998.18
2018-03-29T03:52:47.459Z,998.19
2018-03-29T03:53:47.473Z,998.22
2018-03-29T03:54:47.489Z,998.20
2018-03-29T03:55:47.499Z,998.28
2018-03-29T03:56:47.519Z,998.27
2018-03-29T03:57:47.535Z,998.33
2018-03-29T03:58:47.549Z,998.31
2018-03-29T03:59:47.564Z,998.39
2018-03-29T04:00:47.579Z,998.38
2018-03-29T04:01:47.596Z,998.40
2018-03-29T04:02:47.609Z,998.37
2018-03-29T04:03:47.629Z,998.43
2018-03-29T04:04:47.650Z,998.42
2018-03-29T04:05:47.661Z,998.41
2018-03-29T04:06:47.683Z,998.42
2018-03-29T04:07:47.698Z,998.41
2018-03-29T04:08:47.715Z,998.46
2018-03-29T04:09:47.721Z,998.46
2018-03-29T04:10:47.742Z,998.45
2018-03-29T04:11:47.757Z,998.51
2018-03-29T04:12:47.770Z,998.52
2018-03-29T04:13:47.786Z,998.51
2018-03-29T04:14:47.808Z,998.56
2018-03-29T04:15:47.823Z,998.61
2018-03-29T04:16:47.839Z,998.59
2018-03-29T04:17:47.848Z,998.63
2018-03-29T04:18:47.866Z,998.64
2018-03-29T04:19:47.878Z,998.67
2018-03-29T04:20:47.899Z,998.66
2018-03-29T04:21:47.913Z,998.73
2018-03-29T04:22:47.930Z,998.74
2018-03-29T04:23:47.943Z,998.71
2018-03-29T04:24:47.958Z,998.77
2018-03-29T04:25:47.972Z,998.77
2018-03-29T04:26:47.991Z,998.77
2018-03-29T04:27:48.006Z,998.81
2018-03-29T04:28:48.023Z,998.85
2018-03-29T04:29:48.037Z,998.86
2018-03-29T04:30:48.054Z,998.88
2018-03-29T04:31:48.068Z,998.88
2018-03-29T04:32:48.085Z,998.88
2018-03-29T04:33:48.100Z,998.95
2018-03-29T04:34:48.114Z,998.91
2018-03-29T04:35:48.128Z,998.91
2018-03-29T04:36:48.148Z,998.95
2018-03-29T04:37:48.158Z,998.94
2018-03-29T04:38:48.177Z,998.96
2018-03-29T04:39:48.192Z,998.98
2018-03-29T04:40:48.207Z,999.00
2018-03-29T04:41:48.222Z,999.00
2018-03-29T04:42:48.246Z,999.00
2018-03-29T04:43:48.251Z,999.01
2018-03-29T04:44:48.267Z,999.01
2018-03-29T04:45:48.287Z,999.05
2018-03-29T04:46:48.301Z,999.05
2018-03-29T04:47:48.317Z,999.08
2018-03-29T04:48:48.336Z,999.08
2018-03-29T04:49:48.348Z,999.15
2018-03-29T04:50:48.362Z,999.12
2018-03-29T04:51:48.383Z,999.10
2018-03-29T04:52:48.400Z,999.16
2018-03-29T04:53:48.408Z,999.15
2018-03-29T04:54:48.425Z,999.21
2018-03-29T04:55:48.447Z,999.16
2018-03-29T04:56:48.460Z,999.21
2018-03-29T04:57:48.478Z,999.21
2018-03-29T04:58:48.486Z,999.23
2018-03-29T04:59:48.509Z,999.23
2018-03-29T05:00:48.515Z,999.31
2018-03-29T05:01:48.531Z,999.29
2018-03-29T05:02:48.550Z,999.35
2018-03-29T05:03:48.567Z,999.32
2018-03-29T05:04:48.585Z,999.37
2018-03-29T05:05:48.596Z,999.35
2018-03-29T05:06:48.620Z,999.37
2018-03-29T05:07:48.629Z,999.43
2018-03-29T05:08:48.649Z,999.42
2018-03-29T05:09:48.658Z,999.43
2018-03-29T05:10:48.671Z,999.36
2018-03-29T05:11:48.697Z,999.46
2018-03-29T05:12:48.704Z,999.53
2018-03-29T05:13:48.725Z,999.56
2018-03-29T05:14:48.735Z,999.59
2018-03-29T05:15:48.751Z,999.68
2018-03-29T05:16:48.769Z,999.62
2018-03-29T05:17:48.795Z,999.62
2018-03-29T05:18:48.794Z,999.62
2018-03-29T05:19:48.814Z,999.69
2018-03-29T05:20:48.828Z,999.68
2018-03-29T05:21:48.838Z,999.66
2018-03-29T05:22:48.857Z,999.78
2018-03-29T05:23:48.876Z,999.85
2018-03-29T05:24:48.883Z,999.80
2018-03-29T05:25:48.905Z,999.79
2018-03-29T05:26:48.919Z,999.80
2018-03-29T05:27:48.930Z,999.80
2018-03-29T05:28:48.984Z,999.80
2018-03-29T05:29:48.963Z,999.83
2018-03-29T05:30:48.987Z,999.81
2018-03-29T05:31:48.994Z,999.87
2018-03-29T05:32:49.021Z,999.88
2018-03-29T05:33:49.028Z,999.91
2018-03-29T05:34:49.043Z,999.87
2018-03-29T05:35:49.058Z,999.84
2018-03-29T05:36:49.073Z,999.90
2018-03-29T05:37:49.088Z,999.95
2018-03-29T05:38:49.108Z,999.91
2018-03-29T05:39:49.127Z,999.96
2018-03-29T05:40:49.198Z,999.99
2018-03-29T05:41:49.151Z,1000.01
2018-03-29T05:42:49.162Z,1000.04
2018-03-29T05:43:49.183Z,999.99
2018-03-29T05:44:49.196Z,1000.06
2018-03-29T05:45:49.221Z,1000.14
2018-03-29T05:46:49.228Z,1000.10
2018-03-29T05:47:49.243Z,1000.11
2018-03-29T05:48:49.267Z,1000.21
2018-03-29T05:49:49.275Z,1000.16
2018-03-29T05:50:49.289Z,1000.24
2018-03-29T05:51:49.305Z,1000.27
2018-03-29T05:52:49.322Z,1000.20
2018-03-29T05:53:49.336Z,1000.22
2018-03-29T05:54:49.351Z,1000.29
2018-03-29T05:55:49.372Z,1000.30
2018-03-29T05:56:49.390Z,1000.29
2018-03-29T05:57:49.402Z,1000.24
2018-03-29T05:58:49.412Z,1000.33
2018-03-29T05:59:49.431Z,1000.33
2018-03-29T06:00:49.452Z,1000.35
2018-03-29T06:01:49.461Z,1000.34
2018-03-29T06:02:49.475Z,1000.33
2018-03-29T06:03:49.505Z,1000.38
2018-03-29T06:04:49.504Z,1000.44
2018-03-29T06:05:49.521Z,1000.43
2018-03-29T06:06:49.540Z,1000.54
2018-03-29T06:07:49.552Z,1000.50
2018-03-29T06:08:49.568Z,1000.41
2018-03-29T06:09:49.586Z,1000.42
2018-03-29T06:10:49.596Z,1000.45
2018-03-29T06:11:49.615Z,1000.43
2018-03-29T06:12:49.640Z,1000.48
2018-03-29T06:13:49.641Z,1000.49
2018-03-29T06:14:49.657Z,1000.50
2018-03-29T06:15:49.671Z,1000.47
2018-03-29T06:16:49.686Z,1000.53
2018-03-29T06:17:49.767Z,1000.56
2018-03-29T06:18:49.720Z,1000.60
2018-03-29T06:19:49.731Z,1000.62
2018-03-29T06:20:49.752Z,1000.65
2018-03-29T06:21:49.761Z,1000.66
2018-03-29T06:22:49.781Z,1000.59
2018-03-29T06:23:49.796Z,1000.69
2018-03-29T06:24:49.815Z,1000.73
2018-03-29T06:25:49.826Z,1000.73
2018-03-29T06:26:49.844Z,1000.76
2018-03-29T06:27:49.856Z,1000.78
2018-03-29T06:28:49.873Z,1000.81
2018-03-29T06:29:49.892Z,1000.79
2018-03-29T06:30:49.911Z,1000.85
2018-03-29T06:31:49.925Z,1000.83
2018-03-29T06:32:49.941Z,1000.82
2018-03-29T06:33:49.951Z,1000.86
2018-03-29T06:34:49.965Z,1000.89
2018-03-29T06:35:49.989Z,1000.90
2018-03-29T06:36:49.995Z,1000.96
2018-03-29T06:37:50.023Z,1000.91
2018-03-29T06:38:50.030Z,1000.95
2018-03-29T06:39:50.047Z,1000.98
2018-03-29T06:40:50.061Z,1000.99
2018-03-29T06:41:50.077Z,1001.02
2018-03-29T06:42:50.091Z,1001.03
2018-03-29T06:43:50.105Z,1001.05
2018-03-29T06:44:50.120Z,1001.06
2018-03-29T06:45:50.146Z,1001.07
2018-03-29T06:46:50.156Z,1001.21
2018-03-29T06:47:50.170Z,1001.13
2018-03-29T06:48:50.185Z,1001.18
2018-03-29T06:49:50.202Z,1001.18
2018-03-29T06:50:50.219Z,1001.19
2018-03-29T06:51:50.230Z,1001.18
2018-03-29T06:52:50.246Z,1001.20
2018-03-29T06:53:50.265Z,1001.23
2018-03-29T06:54:50.325Z,1001.26
2018-03-29T06:55:50.301Z,1001.28
2018-03-29T06:56:50.309Z,1001.30
2018-03-29T06:57:50.326Z,1001.30
2018-03-29T06:58:50.340Z,1001.33
2018-03-29T06:59:50.355Z,1001.34
2018-03-29T07:00:50.377Z,1001.37
2018-03-29T07:01:50.393Z,1001.34
2018-03-29T07:02:50.402Z,1001.43
2018-03-29T07:03:50.418Z,1001.40
2018-03-29T07:04:50.440Z,1001.48
2018-03-29T07:05:50.453Z,1001.59
2018-03-29T07:06:50.469Z,1001.46
2018-03-29T07:07:50.484Z,1001.51
2018-03-29T07:08:50.499Z,1001.53
2018-03-29T07:09:50.526Z,1001.56
2018-03-29T07:10:50.546Z,1001.61
2018-03-29T07:11:50.552Z,1001.54
2018-03-29T07:12:50.567Z,1001.55
2018-03-29T07:13:50.579Z,1001.57
2018-03-29T07:14:50.593Z,1001.61
2018-03-29T07:15:50.615Z,1001.64
2018-03-29T07:16:50.637Z,1001.65
2018-03-29T07:17:50.642Z,1001.63
2018-03-29T07:18:50.664Z,1001.75
2018-03-29T07:19:50.677Z,1001.69
2018-03-29T07:20:50.696Z,1001.69
2018-03-29T07:21:50.709Z,1001.68
2018-03-29T07:22:50.729Z,1001.74
2018-03-29T07:23:50.739Z,1001.78
2018-03-29T07:24:50.757Z,1001.73
2018-03-29T07:25:50.775Z,1001.67
2018-03-29T07:26:50.822Z,1001.73
2018-03-29T07:27:50.802Z,1001.72
2018-03-29T07:28:50.818Z,1001.78
2018-03-29T07:29:50.837Z,1001.71
2018-03-29T07:30:50.854Z,1001.85
2018-03-29T07:31:50.869Z,1001.78
2018-03-29T07:32:50.886Z,1001.77
2018-03-29T07:33:50.901Z,1001.83
2018-03-29T07:34:50.932Z,1001.71
2018-03-29T07:35:50.939Z,1001.80
2018-03-29T07:36:50.954Z,1001.84
2018-03-29T07:37:50.962Z,1001.79
2018-03-29T07:38:50.978Z,1001.77
2018-03-29T07:39:51.001Z,1001.79
2018-03-29T07:40:51.019Z,1001.82
2018-03-29T07:41:51.035Z,1001.86
2018-03-29T07:42:51.046Z,1001.89
2018-03-29T07:43:51.061Z,1001.96
2018-03-29T07:44:51.075Z,1001.88
2018-03-29T07:45:51.091Z,1001.91
2018-03-29T07:46:51.112Z,1001.91
2018-03-29T07:47:51.125Z,1001.95
2018-03-29T07:48:51.147Z,1001.96
2018-03-29T07:49:51.161Z,1001.94
2018-03-29T07:50:51.179Z,1001.99
2018-03-29T07:51:51.195Z,1002.00
2018-03-29T07:52:51.211Z,1001.98
2018-03-29T07:53:51.223Z,1002.02
2018-03-29T07:54:51.242Z,1002.08
2018-03-29T07:55:51.253Z,1002.00
2018-03-29T07:56:51.271Z,1002.08
2018-03-29T07:57:51.352Z,1002.07
2018-03-29T07:58:51.308Z,1002.15
2018-03-29T07:59:51.341Z,1002.07
2018-03-29T08:00:51.341Z,1002.04
2018-03-29T08:01:51.352Z,1002.14
2018-03-29T08:02:51.376Z,1002.11
2018-03-29T08:03:51.386Z,1002.17
2018-03-29T08:04:51.404Z,1002.14
2018-03-29T08:05:51.422Z,1002.12
2018-03-29T08:06:51.448Z,1002.08
2018-03-29T08:07:51.450Z,1002.19
2018-03-29T08:08:51.471Z,1002.28
2018-03-29T08:09:51.491Z,1002.27
2018-03-29T08:10:51.500Z,1002.34
2018-03-29T08:11:51.519Z,1002.39
2018-03-29T08:12:51.538Z,1002.35
2018-03-29T08:13:51.598Z,1002.34
2018-03-29T08:14:51.572Z,1002.30
2018-03-29T08:15:51.590Z,1002.25
2018-03-29T08:16:51.599Z,1002.22
2018-03-29T08:17:51.620Z,1002.34
2018-03-29T08:18:51.636Z,1002.35
2018-03-29T08:19:51.649Z,1002.29
2018-03-29T08:20:51.665Z,1002.44
2018-03-29T08:21:51.684Z,1002.39
2018-03-29T08:22:51.704Z,1002.39
2018-03-29T08:23:51.716Z,1002.43
2018-03-29T08:24:51.738Z,1002.43
2018-03-29T08:25:51.749Z,1002.40
2018-03-29T08:26:51.764Z,1002.47
2018-03-29T08:27:51.788Z,1002.45
2018-03-29T08:28:51.804Z,1002.42
2018-03-29T08:29:51.816Z,1002.39
2018-03-29T08:30:51.835Z,1002.49
2018-03-29T08:31:51.850Z,1002.47
2018-03-29T08:32:51.864Z,1002.47
2018-03-29T08:33:51.884Z,1002.48
2018-03-29T08:34:51.903Z,1002.48
2018-03-29T08:35:51.919Z,1002.48
2018-03-29T08:36:51.932Z,1002.68
2018-03-29T08:37:51.948Z,1002.63
2018-03-29T08:38:51.967Z,1002.68
2018-03-29T08:39:51.986Z,1002.71
2018-03-29T08:40:52.007Z,1002.73
2018-03-29T08:41:52.014Z,1002.69
2018-03-29T08:42:52.064Z,1002.85
2018-03-29T08:43:52.053Z,1002.75
2018-03-29T08:44:52.069Z,1002.67
2018-03-29T08:45:52.086Z,1002.67
2018-03-29T08:46:52.109Z,1002.66
2018-03-29T08:47:52.118Z,1002.72
2018-03-29T08:48:52.132Z,1002.64
2018-03-29T08:49:52.155Z,1002.80
2018-03-29T08:50:52.172Z,1002.84
2018-03-29T08:51:52.190Z,1002.95
2018-03-29T08:52:52.203Z,1003.04
2018-03-29T08:53:52.217Z,1003.01
2018-03-29T08:54:52.239Z,1002.97
2018-03-29T08:55:52.257Z,1002.94
2018-03-29T08:56:52.272Z,1002.92
2018-03-29T08:57:52.289Z,1003.02
2018-03-29T08:58:52.312Z,1002.93
2018-03-29T08:59:52.326Z,1002.98
2018-03-29T09:00:52.341Z,1003.05
2018-03-29T09:01:52.356Z,1003.10
2018-03-29T09:02:52.374Z,1003.06
2018-03-29T09:03:52.387Z,1003.03
2018-03-29T09:04:52.413Z,1003.13
2018-03-29T09:05:52.423Z,1003.16
2018-03-29T09:06:52.445Z,1003.31
2018-03-29T09:07:52.457Z,1003.32
2018-03-29T09:08:52.525Z,1003.22
2018-03-29T09:09:52.504Z,1003.18
2018-03-29T09:10:52.514Z,1003.27
2018-03-29T09:11:52.534Z,1003.26
2018-03-29T09:12:52.551Z,1003.19
2018-03-29T09:13:52.569Z,1003.03
2018-03-29T09:14:52.583Z,1003.17
2018-03-29T09:15:52.599Z,1003.20
2018-03-29T09:16:52.618Z,1003.30
2018-03-29T09:17:52.639Z,1003.28
2018-03-29T09:18:52.652Z,1003.17
2018-03-29T09:19:52.674Z,1003.01
2018-03-29T09:20:52.688Z,1003.14
2018-03-29T09:21:52.709Z,1003.38
2018-03-29T09:22:52.726Z,1003.40
2018-03-29T09:23:52.742Z,1003.26
2018-03-29T09:24:52.756Z,1003.47
2018-03-29T09:25:52.777Z,1003.39
2018-03-29T09:26:52.796Z,1003.46
2018-03-29T09:27:52.816Z,1003.35
2018-03-29T09:28:52.836Z,1003.34
2018-03-29T09:29:52.852Z,1003.21
2018-03-29T09:30:52.869Z,1003.44
2018-03-29T09:31:52.892Z,1003.54
2018-03-29T09:32:52.903Z,1003.54
2018-03-29T09:33:52.921Z,1003.49
2018-03-29T09:34:52.936Z,1003.33
2018-03-29T09:35:52.958Z,1003.41
2018-03-29T09:36:52.977Z,1003.53
2018-03-29T09:37:52.991Z,1003.35
2018-03-29T09:38:53.016Z,1003.28
2018-03-29T09:39:53.026Z,1003.41
2018-03-29T09:40:53.049Z,1003.44
2018-03-29T09:41:53.064Z,1003.40
2018-03-29T09:42:53.081Z,1003.35
2018-03-29T09:43:53.101Z,1003.42
2018-03-29T09:44:53.115Z,1003.29
2018-03-29T09:45:53.135Z,1003.29
2018-03-29T09:46:53.150Z,1003.32
2018-03-29T09:47:53.170Z,1003.28
2018-03-29T09:48:53.188Z,1003.28
2018-03-29T09:49:53.206Z,1003.36
2018-03-29T09:50:53.221Z,1003.29
2018-03-29T09:51:53.245Z,1003.27
2018-03-29T09:52:53.264Z,1003.27
2018-03-29T09:53:53.282Z,1003.42
2018-03-29T09:54:53.306Z,1003.38
2018-03-29T09:55:53.312Z,1003.57
2018-03-29T09:56:53.331Z,1003.55
2018-03-29T09:57:53.363Z,1003.64
2018-03-29T09:58:53.369Z,1003.48
2018-03-29T09:59:53.385Z,1003.52
2018-03-29T10:00:53.404Z,1003.71
2018-03-29T10:01:53.423Z,1003.99
2018-03-29T10:02:53.439Z,1003.96
2018-03-29T10:03:53.463Z,1003.61
2018-03-29T10:04:53.476Z,1003.73
2018-03-29T10:05:53.488Z,1003.52
2018-03-29T10:06:53.515Z,1003.60
2018-03-29T10:07:53.522Z,1003.54
2018-03-29T10:08:53.553Z,1003.56
2018-03-29T10:09:53.566Z,1003.48
2018-03-29T10:10:53.584Z,1003.57
2018-03-29T10:11:53.599Z,1003.53
2018-03-29T10:12:53.614Z,1003.53
2018-03-29T10:13:53.643Z,1003.44
2018-03-29T10:14:53.653Z,1003.47
2018-03-29T10:15:53.669Z,1003.69
2018-03-29T10:16:53.692Z,1003.54
2018-03-29T10:17:53.708Z,1003.61
2018-03-29T10:18:53.786Z,1003.69
2018-03-29T10:19:53.745Z,1003.74
2018-03-29T10:20:53.760Z,1003.65
2018-03-29T10:21:53.786Z,1003.70
2018-03-29T10:22:53.801Z,1003.76
2018-03-29T10:23:53.818Z,1003.69
2018-03-29T10:24:53.830Z,1003.76
2018-03-29T10:25:53.858Z,1003.76
2018-03-29T10:26:53.872Z,1003.71
2018-03-29T10:27:53.909Z,1003.78
2018-03-29T10:28:53.903Z,1003.76
2018-03-29T10:29:53.927Z,1003.73
2018-03-29T10:30:53.939Z,1003.80
2018-03-29T10:31:53.957Z,1003.84
2018-03-29T10:32:53.978Z,1003.79
2018-03-29T10:33:53.992Z,1003.81
2018-03-29T10:34:54.018Z,1003.83
2018-03-29T10:35:54.059Z,1003.83
2018-03-29T10:36:54.049Z,1003.80
2018-03-29T10:37:54.064Z,1003.92
2018-03-29T10:38:54.081Z,1003.93
2018-03-29T10:39:54.101Z,1004.08
2018-03-29T10:40:54.120Z,1003.99
2018-03-29T10:41:54.136Z,1004.06
2018-03-29T10:42:54.146Z,1004.03
2018-03-29T10:43:54.166Z,1003.98
2018-03-29T10:44:54.187Z,1003.96
2018-03-29T10:45:54.207Z,1003.99
2018-03-29T10:46:54.219Z,1004.00
2018-03-29T10:47:54.242Z,1004.00
2018-03-29T10:48:54.256Z,1004.07
2018-03-29T10:49:54.277Z,1004.06
2018-03-29T10:50:54.296Z,1004.07
2018-03-29T10:51:54.314Z,1004.21
2018-03-29T10:52:54.332Z,1004.19
2018-03-29T10:53:54.347Z,1004.05
2018-03-29T10:54:54.360Z,1004.04
2018-03-29T10:55:54.387Z,1004.07
2018-03-29T10:56:54.404Z,1004.15
2018-03-29T10:57:54.416Z,1004.08
2018-03-29T10:58:54.439Z,1004.00
2018-03-29T10:59:54.455Z,1004.04
2018-03-29T11:00:54.470Z,1004.05
2018-03-29T11:01:54.490Z,1004.08
2018-03-29T11:02:54.509Z,1004.09
2018-03-29T11:03:54.524Z,1004.10
2018-03-29T11:04:54.545Z,1004.17
2018-03-29T11:05:54.564Z,1004.13
2018-03-29T11:06:54.575Z,1004.13
2018-03-29T11:07:54.595Z,1004.20
2018-03-29T11:08:54.618Z,1004.20
2018-03-29T11:09:54.630Z,1004.20
2018-03-29T11:10:54.649Z,1004.21
2018-03-29T11:11:54.667Z,1004.22
2018-03-29T11:12:54.689Z,1004.26
2018-03-29T11:13:54.704Z,1004.28
2018-03-29T11:14:54.723Z,1004.26
2018-03-29T11:15:54.745Z,1004.21
2018-03-29T11:16:54.761Z,1004.27
2018-03-29T11:17:54.776Z,1004.26
2018-03-29T11:18:54.794Z,1004.28
2018-03-29T11:19:54.807Z,1004.28
2018-03-29T11:20:54.829Z,1004.28
2018-03-29T11:21:54.847Z,1004.33
2018-03-29T11:22:54.858Z,1004.27
2018-03-29T11:23:54.880Z,1004.36
2018-03-29T11:24:54.895Z,1004.31
2018-03-29T11:25:54.917Z,1004.39
2018-03-29T11:26:54.930Z,1004.40
2018-03-29T11:27:54.952Z,1004.49
2018-03-29T11:28:54.966Z,1004.50
2018-03-29T11:29:54.984Z,1004.46
2018-03-29T11:30:54.998Z,1004.48
2018-03-29T11:31:55.017Z,1004.43
2018-03-29T11:32:55.035Z,1004.41
2018-03-29T11:33:55.053Z,1004.38
2018-03-29T11:34:55.069Z,1004.61
2018-03-29T11:35:55.093Z,1004.67
2018-03-29T11:36:55.109Z,1004.59
2018-03-29T11:37:55.127Z,1004.66
2018-03-29T11:38:55.140Z,1004.71
2018-03-29T11:39:55.159Z,1004.69
2018-03-29T11:40:55.178Z,1004.73
2018-03-29T11:41:55.193Z,1004.75
2018-03-29T11:42:55.208Z,1004.78
2018-03-29T11:43:55.231Z,1004.71
2018-03-29T11:44:55.247Z,1004.65
2018-03-29T11:45:55.264Z,1004.69
2018-03-29T11:46:55.282Z,1004.69
2018-03-29T11:47:55.302Z,1004.66
2018-03-29T11:48:55.325Z,1004.87
2018-03-29T11:49:55.334Z,1004.73
2018-03-29T11:50:55.353Z,1004.83
2018-03-29T11:51:55.369Z,1004.83
2018-03-29T11:52:55.391Z,1004.87
2018-03-29T11:53:55.403Z,1004.84
2018-03-29T11:54:55.422Z,1004.92
2018-03-29T11:55:55.440Z,1004.87
2018-03-29T11:56:55.452Z,1004.83
2018-03-29T11:57:55.494Z,1004.71
2018-03-29T11:58:55.492Z,1004.84
2018-03-29T11:59:55.509Z,1004.81
2018-03-29T12:00:55.528Z,1004.75
2018-03-29T12:01:55.541Z,1004.84
2018-03-29T12:02:55.562Z,1005.05
2018-03-29T12:03:55.582Z,1004.89
2018-03-29T12:04:55.597Z,1004.72
2018-03-29T12:05:55.625Z,1004.89
2018-03-29T12:06:55.633Z,1004.97
2018-03-29T12:07:55.652Z,1004.96
2018-03-29T12:08:55.673Z,1005.01
2018-03-29T12:09:55.686Z,1004.96
2018-03-29T12:10:55.708Z,1004.92
2018-03-29T12:11:55.730Z,1004.93
2018-03-29T12:12:55.742Z,1004.92
2018-03-29T12:13:55.766Z,1004.91
2018-03-29T12:14:55.783Z,1004.94
2018-03-29T12:15:55.801Z,1004.89
2018-03-29T12:16:55.816Z,1004.92